createdAt,value
2023-02-04T00:01:34.288Z,55.75
2023-02-04T00:04:01.412Z,64.88
2023-02-04T00:06:28.342Z,65.13
2023-02-04T00:08:55.384Z,68.20
2023-02-04T00:11:22.309Z,57.78
2023-02-04T00:13:49.180Z,56.80
2023-02-04T00:16:16.261Z,57.95
2023-02-04T00:18:43.277Z,69.45
2023-02-04T00:21:10.199Z,60.42
2023-02-04T00:23:38.301Z,64.32
2023-02-04T00:26:07.358Z,62.15
2023-02-04T00:28:34.865Z,75.63
2023-02-04T00:31:01.930Z,68.72
2023-02-04T00:33:29.232Z,75.20
2023-02-04T00:35:56.381Z,72.50
2023-02-04T00:38:23.736Z,71.18
2023-02-04T00:40:50.681Z,82.57
2023-02-04T00:43:18.726Z,59.85
2023-02-04T00:45:45.767Z,80.78
2023-02-04T00:48:12.759Z,75.50
2023-02-04T00:50:39.946Z,66.75
2023-02-04T00:53:07.580Z,78.38
2023-02-04T00:55:34.620Z,80.53
2023-02-04T00:58:01.821Z,78.03
2023-02-04T01:00:29.156Z,78.72
2023-02-04T01:02:56.393Z,73.72
2023-02-04T01:05:23.384Z,70.35
2023-02-04T01:07:50.384Z,76.05
2023-02-04T01:10:18.022Z,74.97
2023-02-04T01:12:45.149Z,81.72
2023-02-04T01:15:12.469Z,89.18
2023-02-04T01:17:39.472Z,75.97
2023-02-04T01:20:06.860Z,81.55
2023-02-04T01:22:33.902Z,78.72
2023-02-04T01:25:00.929Z,79.75
2023-02-04T01:27:44.594Z,87.53
2023-02-04T01:30:13.432Z,92.22
2023-02-04T01:32:41.018Z,81.60
2023-02-04T01:35:08.334Z,78.47
2023-02-04T01:37:35.380Z,81.75
2023-02-04T01:40:02.438Z,80.75
2023-02-04T01:42:29.486Z,78.78
2023-02-04T01:44:56.453Z,86.78
2023-02-04T01:47:24.834Z,86.00
2023-02-04T01:49:54.311Z,78.10
2023-02-04T01:52:23.137Z,89.75
2023-02-04T01:54:51.834Z,90.30
2023-02-04T01:57:18.964Z,79.85
2023-02-04T01:59:47.489Z,88.35
2023-02-04T02:02:42.442Z,101.13
2023-02-04T02:05:12.292Z,97.30
2023-02-04T02:07:39.552Z,95.47
2023-02-04T02:10:09.528Z,112.20
2023-02-04T02:12:37.271Z,106.60
2023-02-04T02:15:05.594Z,105.35
2023-02-04T02:17:33.523Z,92.45
2023-02-04T02:20:00.750Z,100.45
2023-02-04T02:22:35.493Z,82.75
2023-02-04T02:27:34.534Z,99.95
2023-02-04T02:30:01.587Z,90.75
2023-02-04T02:32:28.802Z,103.32
2023-02-04T02:34:55.767Z,99.07
2023-02-04T02:37:22.854Z,104.15
2023-02-04T02:39:49.798Z,102.85
2023-02-04T02:42:19.648Z,107.32
2023-02-04T02:44:49.851Z,116.75
2023-02-04T02:47:20.137Z,92.88
2023-02-04T02:49:51.058Z,94.70
2023-02-04T02:52:19.009Z,120.38
2023-02-04T02:54:46.942Z,115.45
2023-02-04T02:57:19.760Z,103.57
2023-02-04T02:59:47.611Z,105.93
2023-02-04T03:02:18.916Z,107.55
2023-02-04T03:04:51.154Z,123.50
2023-02-04T03:07:20.922Z,106.93
2023-02-04T03:09:49.131Z,103.90
2023-02-04T03:12:16.191Z,106.93
2023-02-04T03:14:43.251Z,101.45
2023-02-04T03:17:11.206Z,96.70
2023-02-04T03:19:39.614Z,107.85
2023-02-04T03:22:08.065Z,107.43
2023-02-04T03:24:37.054Z,102.15
2023-02-04T03:27:04.522Z,102.43
2023-02-04T03:29:31.675Z,100.05
2023-02-04T03:32:00.143Z,108.45
2023-02-04T03:34:27.463Z,107.15
2023-02-04T03:36:54.665Z,100.97
2023-02-04T03:39:21.791Z,119.55
2023-02-04T03:41:48.787Z,108.20
2023-02-04T03:44:15.817Z,102.85
2023-02-04T03:46:42.791Z,112.97
2023-02-04T03:49:09.797Z,101.72
2023-02-04T03:51:36.823Z,101.93
2023-02-04T03:54:04.089Z,105.05
2023-02-04T03:56:31.087Z,106.78
2023-02-04T03:58:58.088Z,114.00
2023-02-04T04:01:25.146Z,93.20
2023-02-04T04:03:52.303Z,95.32
2023-02-04T04:06:19.469Z,111.57
2023-02-04T04:08:46.494Z,108.18
2023-02-04T04:11:13.459Z,104.45
2023-02-04T04:13:40.619Z,105.10
2023-02-04T04:16:09.254Z,100.25
2023-02-04T04:18:36.372Z,106.95
2023-02-04T04:21:03.750Z,94.40
2023-02-04T04:23:30.836Z,100.57
2023-02-04T04:25:57.819Z,100.70
2023-02-04T04:28:24.845Z,94.85
2023-02-04T04:30:52.204Z,99.90
2023-02-04T04:33:19.256Z,99.57
2023-02-04T04:35:46.288Z,109.90
2023-02-04T04:38:13.509Z,105.13
2023-02-04T04:40:40.555Z,117.60
2023-02-04T04:43:07.554Z,98.78
2023-02-04T04:45:34.631Z,113.50
2023-02-04T04:48:01.804Z,110.20
2023-02-04T04:50:28.883Z,103.55
2023-02-04T04:52:55.935Z,108.25
2023-02-04T04:55:22.943Z,108.28
2023-02-04T04:57:50.125Z,100.80
2023-02-04T05:00:20.110Z,103.18
2023-02-04T05:02:47.822Z,100.95
2023-02-04T05:05:15.177Z,97.55
2023-02-04T05:07:42.217Z,99.97
2023-02-04T05:10:09.636Z,103.10
2023-02-04T05:12:36.710Z,97.55
2023-02-04T05:15:03.943Z,100.28
2023-02-04T05:17:30.945Z,97.32
2023-02-04T05:19:57.919Z,101.88
2023-02-04T05:22:24.975Z,93.53
2023-02-04T05:24:51.940Z,93.00
2023-02-04T05:27:19.027Z,78.28
2023-02-04T05:29:46.234Z,86.57
2023-02-04T05:32:13.177Z,88.80
2023-02-04T05:34:40.205Z,75.25
2023-02-04T05:37:07.320Z,63.22
2023-02-04T05:39:34.372Z,63.38
2023-02-04T05:42:01.346Z,77.07
2023-02-04T05:44:29.198Z,102.45
2023-02-04T05:46:56.130Z,104.53
2023-02-04T05:49:23.883Z,94.93
2023-02-04T05:51:50.969Z,104.75
2023-02-04T05:54:20.560Z,106.30
2023-02-04T05:56:48.184Z,126.47
2023-02-04T05:59:15.311Z,110.93
2023-02-04T06:01:42.295Z,108.95
2023-02-04T06:04:09.358Z,106.50
2023-02-04T06:06:36.580Z,110.30
2023-02-04T06:09:04.192Z,111.07
2023-02-04T06:11:31.135Z,117.70
2023-02-04T06:13:58.282Z,125.22
2023-02-04T06:16:25.343Z,113.35
2023-02-04T06:18:52.304Z,112.35
2023-02-04T06:21:19.308Z,122.28
2023-02-04T06:23:46.549Z,114.88
2023-02-04T06:26:13.613Z,113.43
2023-02-04T06:28:40.498Z,116.68
2023-02-04T06:31:09.230Z,109.00
2023-02-04T06:33:37.238Z,122.68
2023-02-04T06:36:05.004Z,125.22
2023-02-04T06:38:31.967Z,130.82
2023-02-04T06:40:58.858Z,131.80
2023-02-04T06:43:27.644Z,145.48
2023-02-04T06:45:54.711Z,140.45
2023-02-04T06:48:21.838Z,143.85
2023-02-04T06:50:48.763Z,132.77
2023-02-04T06:53:15.802Z,132.52
2023-02-04T06:55:42.813Z,154.57
2023-02-04T06:58:09.831Z,147.38
2023-02-04T07:00:36.830Z,135.30
2023-02-04T07:03:03.880Z,169.77
2023-02-04T07:05:31.428Z,177.63
2023-02-04T07:07:58.399Z,140.75
2023-02-04T07:10:25.330Z,145.60
2023-02-04T07:12:52.273Z,140.65
2023-02-04T07:15:19.236Z,140.20
2023-02-04T07:17:46.222Z,149.65
2023-02-04T07:20:13.224Z,144.65
2023-02-04T07:22:40.242Z,124.32
2023-02-04T07:25:07.486Z,127.53
2023-02-04T07:27:34.563Z,124.03
2023-02-04T07:30:01.671Z,126.43
2023-02-04T07:32:32.845Z,130.38
2023-02-04T07:35:00.474Z,130.60
2023-02-04T07:37:27.835Z,124.75
2023-02-04T07:39:55.137Z,121.60
2023-02-04T07:42:22.078Z,120.05
2023-02-04T07:44:54.831Z,130.85
2023-02-04T07:47:21.753Z,135.35
2023-02-04T07:49:48.759Z,127.78
2023-02-04T07:52:15.785Z,133.88
2023-02-04T07:54:43.001Z,124.55
2023-02-04T07:57:10.156Z,124.95
2023-02-04T07:59:37.158Z,126.03
2023-02-04T08:02:04.322Z,118.90
2023-02-04T08:04:31.392Z,124.20
2023-02-04T08:06:58.734Z,130.10
2023-02-04T08:09:27.293Z,127.75
2023-02-04T08:11:54.607Z,132.50
2023-02-04T08:14:21.600Z,130.13
2023-02-04T08:16:48.775Z,134.35
2023-02-04T08:19:19.182Z,139.13
2023-02-04T08:21:46.266Z,121.32
2023-02-04T08:24:14.112Z,128.60
2023-02-04T08:26:42.215Z,124.18
2023-02-04T08:29:09.649Z,128.65
2023-02-04T08:31:37.790Z,127.35
2023-02-04T08:34:05.900Z,123.55
2023-02-04T08:36:33.393Z,153.20
2023-02-04T08:39:00.311Z,141.13
2023-02-04T08:41:27.433Z,135.50
2023-02-04T08:43:54.333Z,123.47
2023-02-04T08:46:21.276Z,118.53
2023-02-04T08:48:48.331Z,126.85
2023-02-04T08:51:15.446Z,124.20
2023-02-04T08:53:42.491Z,123.28
2023-02-04T08:56:10.411Z,128.38
2023-02-04T09:01:04.511Z,142.10
2023-02-04T09:03:32.116Z,132.32
2023-02-04T09:05:59.056Z,131.10
2023-02-04T09:08:25.966Z,128.57
2023-02-04T09:10:52.868Z,132.05
2023-02-04T09:15:46.700Z,136.23
2023-02-04T09:18:21.990Z,130.33
2023-02-04T09:20:49.782Z,133.07
2023-02-04T15:08:32.796Z,148.23
2023-02-04T15:10:59.806Z,150.48
2023-02-04T15:13:28.676Z,159.77
2023-02-04T15:15:55.798Z,148.32
2023-02-04T15:18:23.022Z,152.85
2023-02-04T15:20:49.953Z,150.50
2023-02-04T15:23:18.127Z,159.70
2023-02-04T15:25:45.459Z,161.35
2023-02-04T15:28:13.014Z,170.65
2023-02-04T15:30:40.357Z,167.50
2023-02-04T15:33:07.370Z,173.38
2023-02-04T15:35:34.296Z,183.15
2023-02-04T15:38:01.286Z,191.35
2023-02-04T15:40:30.137Z,200.38
2023-02-04T15:42:57.202Z,203.90
2023-02-04T15:45:24.354Z,202.32
2023-02-04T15:47:51.358Z,209.00
2023-02-04T15:50:18.379Z,216.95
2023-02-04T15:52:45.487Z,222.35
2023-02-04T15:55:12.614Z,221.75
2023-02-04T15:57:39.647Z,233.13
2023-02-04T16:00:07.478Z,218.55
2023-02-04T16:02:34.564Z,218.13
2023-02-04T16:05:01.484Z,223.98
2023-02-04T16:07:28.422Z,243.38
2023-02-04T16:09:55.370Z,235.73
2023-02-04T16:12:22.328Z,235.02
2023-02-04T16:14:49.298Z,240.43
2023-02-04T16:17:18.813Z,231.43
2023-02-04T16:19:45.938Z,226.73
2023-02-04T16:22:12.954Z,224.57
2023-02-04T16:24:39.976Z,239.50
2023-02-04T16:27:07.047Z,233.52
2023-02-04T16:29:33.977Z,235.18
2023-02-04T16:32:00.908Z,227.65
2023-02-04T16:34:29.296Z,227.23
2023-02-04T16:36:56.206Z,219.20
2023-02-04T16:39:24.376Z,222.95
2023-02-04T16:41:51.522Z,218.43
2023-02-04T16:44:18.417Z,228.85
2023-02-04T16:46:45.491Z,222.50
2023-02-04T16:49:12.470Z,230.02
2023-02-04T16:51:39.387Z,229.93
2023-02-04T16:54:06.403Z,226.60
2023-02-04T16:56:35.636Z,229.75
2023-02-04T16:59:02.952Z,235.05
2023-02-04T17:01:30.074Z,230.77
2023-02-04T17:03:59.820Z,229.50
2023-02-04T17:06:28.122Z,236.05
2023-02-04T17:08:55.647Z,307.10
2023-02-04T17:11:28.912Z,273.92
2023-02-04T17:14:00.430Z,276.98
2023-02-04T17:16:27.870Z,242.90
2023-02-04T17:18:55.314Z,246.80
2023-02-04T17:21:24.661Z,255.68
2023-02-04T17:23:51.880Z,271.27
2023-02-04T17:26:19.617Z,244.20
2023-02-04T17:28:46.545Z,254.70
2023-02-04T17:31:13.735Z,255.32
2023-02-04T17:33:40.745Z,261.77
2023-02-04T17:36:08.527Z,263.00
2023-02-04T17:38:35.520Z,261.40
2023-02-04T17:41:02.711Z,266.05
2023-02-04T17:43:29.704Z,208.13
2023-02-04T17:45:56.654Z,194.07
2023-02-04T17:48:23.592Z,141.80
2023-02-04T17:50:50.510Z,125.65
2023-02-04T17:53:17.413Z,138.00
2023-02-04T17:55:44.361Z,117.55
2023-02-04T17:58:27.061Z,107.38
2023-02-04T18:00:57.758Z,105.40
2023-02-04T18:03:29.123Z,92.40
2023-02-04T18:05:56.938Z,97.28
2023-02-04T18:08:38.263Z,99.57
2023-02-04T18:11:18.303Z,103.25
2023-02-04T18:13:45.310Z,89.80
2023-02-04T18:16:30.587Z,93.03
2023-02-04T18:19:18.490Z,105.03
2023-02-04T18:21:46.554Z,92.07
2023-02-04T18:24:42.153Z,91.75
2023-02-04T18:27:17.115Z,95.90
2023-02-04T18:29:47.784Z,89.70
2023-02-04T18:32:38.887Z,96.88
2023-02-04T18:35:31.596Z,94.95
2023-02-04T18:37:58.574Z,96.00
2023-02-04T18:40:28.309Z,85.18
2023-02-04T18:43:13.992Z,75.95
2023-02-04T18:45:41.327Z,85.07
2023-02-04T18:48:20.545Z,77.22
2023-02-04T18:50:50.316Z,81.00
2023-02-04T18:53:23.544Z,76.60
2023-02-04T18:55:53.332Z,69.80
2023-02-04T18:58:34.024Z,69.07
2023-02-04T19:01:05.525Z,71.93
2023-02-04T19:03:42.201Z,66.40
2023-02-04T19:06:25.170Z,73.82
2023-02-04T19:08:52.915Z,65.57
2023-02-04T19:11:36.644Z,73.22
2023-02-04T19:14:18.294Z,84.22
2023-02-04T19:16:52.618Z,70.40
2023-02-04T19:20:02.695Z,68.55
2023-02-04T19:22:46.912Z,77.13
2023-02-04T19:25:22.886Z,75.28
2023-02-04T19:27:59.130Z,80.80
2023-02-04T19:30:28.952Z,82.78
2023-02-04T19:33:10.114Z,86.28
2023-02-04T19:35:43.263Z,90.13
2023-02-04T19:38:43.169Z,83.03
2023-02-04T19:41:48.017Z,82.80
2023-02-04T19:44:15.132Z,86.13
2023-02-04T19:46:42.926Z,81.72
2023-02-04T19:49:21.874Z,83.78
2023-02-04T19:51:55.250Z,75.78
2023-02-04T19:54:25.269Z,88.03
2023-02-04T19:56:54.743Z,84.55
2023-02-04T19:59:28.657Z,95.07
2023-02-04T20:02:07.464Z,85.18
2023-02-04T20:04:42.856Z,82.90
2023-02-04T20:07:18.984Z,88.50
2023-02-04T20:09:46.391Z,87.13
2023-02-04T20:12:17.847Z,83.70
2023-02-04T20:14:47.633Z,81.22
2023-02-04T20:17:26.855Z,81.22
2023-02-04T20:19:53.795Z,78.40
2023-02-04T20:22:21.788Z,78.70
2023-02-04T20:24:54.513Z,77.35
2023-02-04T20:27:28.757Z,76.15
2023-02-04T20:30:23.439Z,72.35
2023-02-04T20:32:55.613Z,69.65
2023-02-04T20:35:22.822Z,66.75
2023-02-04T20:37:54.044Z,68.85
2023-02-04T20:40:36.466Z,78.97
2023-02-04T20:43:20.221Z,71.78
2023-02-04T20:45:49.696Z,68.18
2023-02-04T20:48:16.605Z,66.13
2023-02-04T20:50:54.568Z,74.75
2023-02-04T20:53:29.675Z,65.38
2023-02-04T20:56:05.115Z,66.60
2023-02-04T20:58:41.209Z,67.50
2023-02-04T21:01:38.213Z,69.05
2023-02-04T21:04:34.012Z,63.55
2023-02-04T21:07:13.958Z,65.55
2023-02-04T21:09:40.893Z,68.78
2023-02-04T21:12:08.582Z,66.38
2023-02-04T21:14:35.777Z,62.10
2023-02-04T21:17:03.420Z,62.58
2023-02-04T21:19:30.685Z,61.60
2023-02-04T21:21:58.860Z,59.65
2023-02-04T21:24:26.678Z,56.22
2023-02-04T21:26:53.770Z,56.60
2023-02-04T21:29:20.735Z,53.95
2023-02-04T21:31:47.785Z,51.67
2023-02-04T21:34:15.856Z,46.58
2023-02-04T21:36:42.782Z,48.10
2023-02-04T21:39:09.717Z,50.60
2023-02-04T21:41:36.775Z,54.00
2023-02-04T21:44:04.019Z,55.25
2023-02-04T21:46:31.242Z,59.15
2023-02-04T21:48:58.179Z,50.65
2023-02-04T21:51:25.161Z,54.67
2023-02-04T21:53:52.092Z,55.10
2023-02-04T21:56:19.050Z,54.55
2023-02-04T21:58:45.958Z,46.70
2023-02-04T22:01:12.929Z,53.38
2023-02-04T22:03:39.902Z,45.30
2023-02-04T22:06:07.357Z,49.00
2023-02-04T22:08:34.246Z,52.95
2023-02-04T22:11:01.134Z,47.72
2023-02-04T22:13:46.493Z,55.22
2023-02-04T22:16:13.532Z,48.55
2023-02-04T22:18:40.553Z,52.13
2023-02-04T22:21:07.472Z,55.27
2023-02-04T22:23:34.393Z,48.55
2023-02-04T22:26:01.353Z,44.50
2023-02-04T22:28:28.335Z,51.42
2023-02-04T22:30:55.286Z,52.13
2023-02-04T22:33:22.302Z,42.80
2023-02-04T22:35:49.242Z,55.10
2023-02-04T22:38:16.269Z,45.65
2023-02-04T22:40:43.289Z,53.50
2023-02-04T22:43:10.231Z,47.78
2023-02-04T22:45:37.185Z,51.10
2023-02-04T22:48:04.204Z,50.70
2023-02-04T22:50:31.173Z,48.53
2023-02-04T22:52:58.300Z,55.97
2023-02-04T22:55:25.270Z,48.38
2023-02-04T22:57:52.176Z,45.97
2023-02-04T23:00:19.216Z,51.70
2023-02-04T23:02:46.140Z,45.42
2023-02-04T23:05:13.040Z,46.60
2023-02-04T23:07:40.050Z,49.67
2023-02-04T23:10:07.552Z,47.88
2023-02-04T23:12:34.555Z,44.60
2023-02-04T23:15:01.596Z,46.33
2023-02-04T23:17:28.666Z,49.22
2023-02-04T23:19:55.714Z,50.35
2023-02-04T23:22:22.655Z,41.17
2023-02-04T23:24:49.712Z,42.92
2023-02-04T23:27:16.876Z,55.72
2023-02-04T23:29:43.955Z,48.83
2023-02-04T23:32:10.942Z,43.40
2023-02-04T23:34:38.151Z,44.47
2023-02-04T23:37:05.091Z,47.00
2023-02-04T23:39:32.042Z,44.95
2023-02-04T23:41:59.133Z,47.67
2023-02-04T23:44:26.103Z,42.90
2023-02-04T23:46:53.072Z,40.13
2023-02-04T23:49:20.135Z,50.03
2023-02-04T23:51:47.211Z,43.08
2023-02-04T23:54:14.264Z,46.55
2023-02-04T23:56:41.557Z,41.88
2023-02-04T23:59:08.676Z,41.15
